sensor_id;sensor_type;location;lat;lon;timestamp;temperature;humidity
16198;DHT22;8206;51.440;6.914;2023-11-19T00:01:32;10.50;99.90
16198;DHT22;8206;51.440;6.914;2023-11-19T00:03:59;10.50;99.90
16198;DHT22;8206;51.440;6.914;2023-11-19T00:06:27;10.50;99.90
16198;DHT22;8206;51.440;6.914;2023-11-19T00:08:54;10.60;99.90
16198;DHT22;8206;51.440;6.914;2023-11-19T00:11:20;10.60;99.90
16198;DHT22;8206;51.440;6.914;2023-11-19T00:13:47;10.70;99.90
16198;DHT22;8206;51.440;6.914;2023-11-19T00:16:14;10.70;99.90
16198;DHT22;8206;51.440;6.914;2023-11-19T00:18:42;10.70;99.90
16198;DHT22;8206;51.440;6.914;2023-11-19T00:21:08;10.80;99.90
16198;DHT22;8206;51.440;6.914;2023-11-19T00:23:37;10.80;99.90
16198;DHT22;8206;51.440;6.914;2023-11-19T00:26:04;10.80;99.90
16198;DHT22;8206;51.440;6.914;2023-11-19T00:28:32;10.90;99.90
16198;DHT22;8206;51.440;6.914;2023-11-19T00:30:59;10.90;99.90
16198;DHT22;8206;51.440;6.914;2023-11-19T00:33:26;10.90;99.90
16198;DHT22;8206;51.440;6.914;2023-11-19T00:35:52;11.00;99.90
16198;DHT22;8206;51.440;6.914;2023-11-19T00:38:19;11.00;99.90
16198;DHT22;8206;51.440;6.914;2023-11-19T00:40:47;11.00;99.90
16198;DHT22;8206;51.440;6.914;2023-11-19T00:43:14;11.00;99.90
16198;DHT22;8206;51.440;6.914;2023-11-19T00:45:41;11.00;99.90
16198;DHT22;8206;51.440;6.914;2023-11-19T00:48:08;11.10;99.90
16198;DHT22;8206;51.440;6.914;2023-11-19T00:50:35;11.10;99.90
16198;DHT22;8206;51.440;6.914;2023-11-19T00:53:01;11.10;99.90
16198;DHT22;8206;51.440;6.914;2023-11-19T00:55:29;11.10;99.90
16198;DHT22;8206;51.440;6.914;2023-11-19T00:57:57;11.10;99.90
16198;DHT22;8206;51.440;6.914;2023-11-19T01:00:24;11.20;99.90
16198;DHT22;8206;51.440;6.914;2023-11-19T01:02:52;11.20;99.90
16198;DHT22;8206;51.440;6.914;2023-11-19T01:05:19;11.30;99.90
16198;DHT22;8206;51.440;6.914;2023-11-19T01:07:48;11.30;99.90
16198;DHT22;8206;51.440;6.914;2023-11-19T01:10:15;11.30;99.90
16198;DHT22;8206;51.440;6.914;2023-11-19T01:12:44;11.30;99.90
16198;DHT22;8206;51.440;6.914;2023-11-19T01:15:12;11.40;99.90
16198;DHT22;8206;51.440;6.914;2023-11-19T01:17:39;11.40;99.90
16198;DHT22;8206;51.440;6.914;2023-11-19T01:20:06;11.40;99.90
16198;DHT22;8206;51.440;6.914;2023-11-19T01:22:34;11.50;99.90
16198;DHT22;8206;51.440;6.914;2023-11-19T01:25:00;11.50;99.90
16198;DHT22;8206;51.440;6.914;2023-11-19T01:27:28;11.60;99.90
16198;DHT22;8206;51.440;6.914;2023-11-19T01:29:55;11.60;99.90
16198;DHT22;8206;51.440;6.914;2023-11-19T01:32:23;11.60;99.90
16198;DHT22;8206;51.440;6.914;2023-11-19T01:34:50;11.70;99.90
16198;DHT22;8206;51.440;6.914;2023-11-19T01:37:17;11.70;99.90
16198;DHT22;8206;51.440;6.914;2023-11-19T01:39:44;11.80;99.90
16198;DHT22;8206;51.440;6.914;2023-11-19T01:42:11;11.80;99.90
16198;DHT22;8206;51.440;6.914;2023-11-19T01:44:38;11.80;99.90
16198;DHT22;8206;51.440;6.914;2023-11-19T01:47:06;11.90;99.90
16198;DHT22;8206;51.440;6.914;2023-11-19T01:49:34;11.90;99.90
16198;DHT22;8206;51.440;6.914;2023-11-19T01:52:01;11.90;99.90
16198;DHT22;8206;51.440;6.914;2023-11-19T01:54:28;11.90;99.90
16198;DHT22;8206;51.440;6.914;2023-11-19T01:56:56;11.90;99.90
16198;DHT22;8206;51.440;6.914;2023-11-19T01:59:24;12.00;99.90
16198;DHT22;8206;51.440;6.914;2023-11-19T02:01:52;12.00;99.90
16198;DHT22;8206;51.440;6.914;2023-11-19T02:04:20;12.00;99.90
16198;DHT22;8206;51.440;6.914;2023-11-19T02:06:48;12.00;99.90
16198;DHT22;8206;51.440;6.914;2023-11-19T02:09:17;12.00;99.90
16198;DHT22;8206;51.440;6.914;2023-11-19T02:11:45;12.00;99.90
16198;DHT22;8206;51.440;6.914;2023-11-19T02:14:14;12.00;99.90
16198;DHT22;8206;51.440;6.914;2023-11-19T02:16:41;12.10;99.90
16198;DHT22;8206;51.440;6.914;2023-11-19T02:19:08;12.10;99.90
16198;DHT22;8206;51.440;6.914;2023-11-19T02:21:36;12.10;99.90
16198;DHT22;8206;51.440;6.914;2023-11-19T02:24:07;12.10;99.90
16198;DHT22;8206;51.440;6.914;2023-11-19T02:26:39;12.00;99.90
16198;DHT22;8206;51.440;6.914;2023-11-19T02:29:07;12.00;99.90
16198;DHT22;8206;51.440;6.914;2023-11-19T02:31:34;12.00;99.90
16198;DHT22;8206;51.440;6.914;2023-11-19T02:34:01;12.00;99.90
16198;DHT22;8206;51.440;6.914;2023-11-19T02:36:28;12.10;99.90
16198;DHT22;8206;51.440;6.914;2023-11-19T02:38:55;12.10;99.90
16198;DHT22;8206;51.440;6.914;2023-11-19T02:41:22;12.10;99.90
16198;DHT22;8206;51.440;6.914;2023-11-19T02:43:49;12.10;99.90
16198;DHT22;8206;51.440;6.914;2023-11-19T02:46:18;12.20;99.90
16198;DHT22;8206;51.440;6.914;2023-11-19T02:48:44;12.20;99.90
16198;DHT22;8206;51.440;6.914;2023-11-19T02:51:11;12.20;99.90
16198;DHT22;8206;51.440;6.914;2023-11-19T02:53:38;12.20;99.90
16198;DHT22;8206;51.440;6.914;2023-11-19T02:56:06;12.20;99.90
16198;DHT22;8206;51.440;6.914;2023-11-19T02:58:43;12.20;99.90
16198;DHT22;8206;51.440;6.914;2023-11-19T03:01:10;12.20;99.90
16198;DHT22;8206;51.440;6.914;2023-11-19T03:03:46;12.20;99.90
16198;DHT22;8206;51.440;6.914;2023-11-19T03:06:19;12.20;99.90
16198;DHT22;8206;51.440;6.914;2023-11-19T03:08:47;12.20;99.90
16198;DHT22;8206;51.440;6.914;2023-11-19T03:11:14;12.30;99.90
16198;DHT22;8206;51.440;6.914;2023-11-19T03:13:40;12.20;99.90
16198;DHT22;8206;51.440;6.914;2023-11-19T03:16:07;12.30;99.90
16198;DHT22;8206;51.440;6.914;2023-11-19T03:18:35;12.30;99.90
16198;DHT22;8206;51.440;6.914;2023-11-19T03:21:03;12.30;99.90
16198;DHT22;8206;51.440;6.914;2023-11-19T03:23:30;12.30;99.90
16198;DHT22;8206;51.440;6.914;2023-11-19T03:25:56;12.30;99.90
16198;DHT22;8206;51.440;6.914;2023-11-19T03:28:23;12.30;99.90
16198;DHT22;8206;51.440;6.914;2023-11-19T03:30:50;12.30;99.90
16198;DHT22;8206;51.440;6.914;2023-11-19T03:33:18;12.20;99.90
16198;DHT22;8206;51.440;6.914;2023-11-19T03:35:45;12.00;99.90
16198;DHT22;8206;51.440;6.914;2023-11-19T03:38:13;11.90;99.90
16198;DHT22;8206;51.440;6.914;2023-11-19T03:40:40;11.90;99.90
16198;DHT22;8206;51.440;6.914;2023-11-19T03:43:06;11.90;99.90
16198;DHT22;8206;51.440;6.914;2023-11-19T03:45:34;11.90;99.90
16198;DHT22;8206;51.440;6.914;2023-11-19T03:48:03;11.80;99.90
16198;DHT22;8206;51.440;6.914;2023-11-19T03:50:29;11.80;99.90
16198;DHT22;8206;51.440;6.914;2023-11-19T03:52:56;11.60;99.90
16198;DHT22;8206;51.440;6.914;2023-11-19T03:55:24;11.60;99.90
16198;DHT22;8206;51.440;6.914;2023-11-19T03:57:51;11.50;99.90
16198;DHT22;8206;51.440;6.914;2023-11-19T04:00:18;11.50;99.90
16198;DHT22;8206;51.440;6.914;2023-11-19T04:02:46;11.40;99.90
16198;DHT22;8206;51.440;6.914;2023-11-19T04:05:13;11.30;99.90
16198;DHT22;8206;51.440;6.914;2023-11-19T04:07:40;11.30;99.90
16198;DHT22;8206;51.440;6.914;2023-11-19T04:10:07;11.20;99.90
16198;DHT22;8206;51.440;6.914;2023-11-19T04:12:35;11.30;99.90
16198;DHT22;8206;51.440;6.914;2023-11-19T04:15:03;11.30;99.90
16198;DHT22;8206;51.440;6.914;2023-11-19T04:17:30;11.20;99.90
16198;DHT22;8206;51.440;6.914;2023-11-19T04:19:56;11.30;99.90
16198;DHT22;8206;51.440;6.914;2023-11-19T04:22:23;11.20;99.90
16198;DHT22;8206;51.440;6.914;2023-11-19T04:24:50;11.10;99.90
16198;DHT22;8206;51.440;6.914;2023-11-19T04:27:16;11.10;99.90
16198;DHT22;8206;51.440;6.914;2023-11-19T04:29:44;11.10;99.90
16198;DHT22;8206;51.440;6.914;2023-11-19T04:32:11;11.30;99.90
16198;DHT22;8206;51.440;6.914;2023-11-19T04:34:38;11.30;99.90
16198;DHT22;8206;51.440;6.914;2023-11-19T04:37:05;11.40;99.90
16198;DHT22;8206;51.440;6.914;2023-11-19T04:39:31;11.40;99.90
16198;DHT22;8206;51.440;6.914;2023-11-19T04:41:58;11.50;99.90
16198;DHT22;8206;51.440;6.914;2023-11-19T04:44:25;11.40;99.90
16198;DHT22;8206;51.440;6.914;2023-11-19T04:46:53;11.40;99.90
16198;DHT22;8206;51.440;6.914;2023-11-19T04:49:19;11.50;99.90
16198;DHT22;8206;51.440;6.914;2023-11-19T04:51:46;11.60;99.90
16198;DHT22;8206;51.440;6.914;2023-11-19T04:54:13;11.60;99.90
16198;DHT22;8206;51.440;6.914;2023-11-19T04:56:40;11.60;99.90
16198;DHT22;8206;51.440;6.914;2023-11-19T04:59:07;11.50;99.90
16198;DHT22;8206;51.440;6.914;2023-11-19T05:01:34;11.50;99.90
16198;DHT22;8206;51.440;6.914;2023-11-19T05:04:03;11.50;99.90
16198;DHT22;8206;51.440;6.914;2023-11-19T05:06:30;11.50;99.90
16198;DHT22;8206;51.440;6.914;2023-11-19T05:08:59;11.60;99.90
16198;DHT22;8206;51.440;6.914;2023-11-19T05:11:26;11.70;99.90
16198;DHT22;8206;51.440;6.914;2023-11-19T05:13:53;11.70;99.90
16198;DHT22;8206;51.440;6.914;2023-11-19T05:16:20;11.70;99.90
16198;DHT22;8206;51.440;6.914;2023-11-19T05:18:47;11.60;99.90
16198;DHT22;8206;51.440;6.914;2023-11-19T05:21:15;11.70;99.90
16198;DHT22;8206;51.440;6.914;2023-11-19T05:23:42;11.70;99.90
16198;DHT22;8206;51.440;6.914;2023-11-19T05:26:09;11.80;99.90
16198;DHT22;8206;51.440;6.914;2023-11-19T05:28:38;11.80;99.90
16198;DHT22;8206;51.440;6.914;2023-11-19T05:31:05;11.80;99.90
16198;DHT22;8206;51.440;6.914;2023-11-19T05:33:31;11.90;99.90
16198;DHT22;8206;51.440;6.914;2023-11-19T05:35:58;11.90;99.90
16198;DHT22;8206;51.440;6.914;2023-11-19T05:38:26;11.80;99.90
16198;DHT22;8206;51.440;6.914;2023-11-19T05:40:54;11.80;99.90
16198;DHT22;8206;51.440;6.914;2023-11-19T05:43:20;11.90;99.90
16198;DHT22;8206;51.440;6.914;2023-11-19T05:45:47;11.90;99.90
16198;DHT22;8206;51.440;6.914;2023-11-19T05:48:14;11.90;99.90
16198;DHT22;8206;51.440;6.914;2023-11-19T05:50:40;11.90;99.90
16198;DHT22;8206;51.440;6.914;2023-11-19T05:53:07;11.80;99.90
16198;DHT22;8206;51.440;6.914;2023-11-19T05:55:37;11.70;99.90
16198;DHT22;8206;51.440;6.914;2023-11-19T05:58:10;11.70;99.90
16198;DHT22;8206;51.440;6.914;2023-11-19T06:00:38;11.60;99.90
16198;DHT22;8206;51.440;6.914;2023-11-19T06:03:04;11.70;99.90
16198;DHT22;8206;51.440;6.914;2023-11-19T06:05:31;11.70;99.90
16198;DHT22;8206;51.440;6.914;2023-11-19T06:07:58;11.70;99.90
16198;DHT22;8206;51.440;6.914;2023-11-19T06:10:24;11.70;99.90
16198;DHT22;8206;51.440;6.914;2023-11-19T06:12:57;11.60;99.90
16198;DHT22;8206;51.440;6.914;2023-11-19T06:15:25;11.60;99.90
16198;DHT22;8206;51.440;6.914;2023-11-19T06:17:52;11.50;99.90
16198;DHT22;8206;51.440;6.914;2023-11-19T06:20:19;11.50;99.90
16198;DHT22;8206;51.440;6.914;2023-11-19T06:22:46;11.50;99.90
16198;DHT22;8206;51.440;6.914;2023-11-19T06:25:13;11.50;99.90
16198;DHT22;8206;51.440;6.914;2023-11-19T06:27:40;11.60;99.90
16198;DHT22;8206;51.440;6.914;2023-11-19T06:30:09;11.60;99.90
16198;DHT22;8206;51.440;6.914;2023-11-19T06:32:37;11.60;99.90
16198;DHT22;8206;51.440;6.914;2023-11-19T06:35:05;11.60;99.90
16198;DHT22;8206;51.440;6.914;2023-11-19T06:37:31;11.50;99.90
16198;DHT22;8206;51.440;6.914;2023-11-19T06:39:58;11.40;99.90
16198;DHT22;8206;51.440;6.914;2023-11-19T06:42:25;11.40;99.90
16198;DHT22;8206;51.440;6.914;2023-11-19T06:44:51;11.30;99.90
16198;DHT22;8206;51.440;6.914;2023-11-19T06:47:19;11.30;99.90
16198;DHT22;8206;51.440;6.914;2023-11-19T06:49:46;11.20;99.90
16198;DHT22;8206;51.440;6.914;2023-11-19T06:52:13;11.10;99.90
16198;DHT22;8206;51.440;6.914;2023-11-19T06:54:39;11.00;99.90
16198;DHT22;8206;51.440;6.914;2023-11-19T06:57:06;11.00;99.90
16198;DHT22;8206;51.440;6.914;2023-11-19T06:59:34;11.00;99.90
16198;DHT22;8206;51.440;6.914;2023-11-19T07:02:01;11.00;99.90
16198;DHT22;8206;51.440;6.914;2023-11-19T07:04:29;11.10;99.90
16198;DHT22;8206;51.440;6.914;2023-11-19T07:06:56;11.10;99.90
16198;DHT22;8206;51.440;6.914;2023-11-19T07:09:23;11.10;99.90
16198;DHT22;8206;51.440;6.914;2023-11-19T07:11:49;11.10;99.90
16198;DHT22;8206;51.440;6.914;2023-11-19T07:14:17;11.10;99.90
16198;DHT22;8206;51.440;6.914;2023-11-19T07:16:44;11.00;99.90
16198;DHT22;8206;51.440;6.914;2023-11-19T07:19:11;10.90;99.90
16198;DHT22;8206;51.440;6.914;2023-11-19T07:21:42;11.00;99.90
16198;DHT22;8206;51.440;6.914;2023-11-19T07:24:10;10.90;99.90
16198;DHT22;8206;51.440;6.914;2023-11-19T07:26:41;10.90;99.90
16198;DHT22;8206;51.440;6.914;2023-11-19T07:29:08;10.80;99.90
16198;DHT22;8206;51.440;6.914;2023-11-19T07:31:35;10.80;99.90
16198;DHT22;8206;51.440;6.914;2023-11-19T07:34:02;10.80;99.90
16198;DHT22;8206;51.440;6.914;2023-11-19T07:36:29;10.80;99.90
16198;DHT22;8206;51.440;6.914;2023-11-19T07:38:57;10.70;99.90
16198;DHT22;8206;51.440;6.914;2023-11-19T07:41:24;10.80;99.90
16198;DHT22;8206;51.440;6.914;2023-11-19T07:43:51;10.80;99.90
16198;DHT22;8206;51.440;6.914;2023-11-19T07:46:19;10.90;99.90
16198;DHT22;8206;51.440;6.914;2023-11-19T07:48:46;10.90;99.90
16198;DHT22;8206;51.440;6.914;2023-11-19T07:51:13;10.80;99.90
16198;DHT22;8206;51.440;6.914;2023-11-19T07:53:40;10.90;99.90
16198;DHT22;8206;51.440;6.914;2023-11-19T07:56:09;10.90;99.90
16198;DHT22;8206;51.440;6.914;2023-11-19T07:58:36;10.90;99.90
16198;DHT22;8206;51.440;6.914;2023-11-19T08:01:03;10.90;99.90
16198;DHT22;8206;51.440;6.914;2023-11-19T08:03:30;10.90;99.90
16198;DHT22;8206;51.440;6.914;2023-11-19T08:06:00;10.90;99.90
16198;DHT22;8206;51.440;6.914;2023-11-19T08:08:26;10.90;99.90
16198;DHT22;8206;51.440;6.914;2023-11-19T08:10:55;11.00;99.90
16198;DHT22;8206;51.440;6.914;2023-11-19T08:13:23;11.00;99.90
16198;DHT22;8206;51.440;6.914;2023-11-19T08:15:50;11.00;99.90
16198;DHT22;8206;51.440;6.914;2023-11-19T08:18:16;11.10;99.90
16198;DHT22;8206;51.440;6.914;2023-11-19T08:20:43;11.10;99.90
16198;DHT22;8206;51.440;6.914;2023-11-19T08:23:11;11.20;99.90
16198;DHT22;8206;51.440;6.914;2023-11-19T08:25:38;11.20;99.90
16198;DHT22;8206;51.440;6.914;2023-11-19T08:28:05;11.30;99.90
16198;DHT22;8206;51.440;6.914;2023-11-19T08:30:33;11.30;99.90
16198;DHT22;8206;51.440;6.914;2023-11-19T08:32:59;11.30;99.90
16198;DHT22;8206;51.440;6.914;2023-11-19T08:35:28;11.40;99.90
16198;DHT22;8206;51.440;6.914;2023-11-19T08:37:55;11.60;99.90
16198;DHT22;8206;51.440;6.914;2023-11-19T08:40:22;11.70;99.90
16198;DHT22;8206;51.440;6.914;2023-11-19T08:42:49;11.90;99.90
16198;DHT22;8206;51.440;6.914;2023-11-19T08:45:16;12.00;99.90
16198;DHT22;8206;51.440;6.914;2023-11-19T08:47:44;12.00;99.90
16198;DHT22;8206;51.440;6.914;2023-11-19T08:50:11;12.00;99.90
16198;DHT22;8206;51.440;6.914;2023-11-19T08:52:37;11.90;99.90
16198;DHT22;8206;51.440;6.914;2023-11-19T08:55:05;11.90;99.90
16198;DHT22;8206;51.440;6.914;2023-11-19T08:57:31;11.80;99.90
16198;DHT22;8206;51.440;6.914;2023-11-19T08:59:59;11.70;99.90
16198;DHT22;8206;51.440;6.914;2023-11-19T09:02:25;11.70;99.90
16198;DHT22;8206;51.440;6.914;2023-11-19T09:04:53;11.60;99.90
16198;DHT22;8206;51.440;6.914;2023-11-19T09:07:20;11.60;99.90
16198;DHT22;8206;51.440;6.914;2023-11-19T09:09:47;11.70;99.90
16198;DHT22;8206;51.440;6.914;2023-11-19T09:12:14;11.80;99.90
16198;DHT22;8206;51.440;6.914;2023-11-19T09:14:41;12.00;99.90
16198;DHT22;8206;51.440;6.914;2023-11-19T09:17:08;12.20;99.90
16198;DHT22;8206;51.440;6.914;2023-11-19T09:19:35;12.30;99.90
16198;DHT22;8206;51.440;6.914;2023-11-19T09:22:03;12.40;99.90
16198;DHT22;8206;51.440;6.914;2023-11-19T09:24:30;12.40;99.90
16198;DHT22;8206;51.440;6.914;2023-11-19T09:26:56;12.50;99.90
16198;DHT22;8206;51.440;6.914;2023-11-19T09:29:23;12.50;99.90
16198;DHT22;8206;51.440;6.914;2023-11-19T09:31:50;12.50;99.90
16198;DHT22;8206;51.440;6.914;2023-11-19T09:34:17;12.50;99.90
16198;DHT22;8206;51.440;6.914;2023-11-19T09:36:43;12.60;99.90
16198;DHT22;8206;51.440;6.914;2023-11-19T09:39:12;12.60;99.90
16198;DHT22;8206;51.440;6.914;2023-11-19T09:41:40;12.70;99.90
16198;DHT22;8206;51.440;6.914;2023-11-19T09:44:07;12.60;99.90
16198;DHT22;8206;51.440;6.914;2023-11-19T09:46:35;12.60;99.90
16198;DHT22;8206;51.440;6.914;2023-11-19T09:49:02;12.70;99.90
16198;DHT22;8206;51.440;6.914;2023-11-19T09:51:32;12.70;99.90
16198;DHT22;8206;51.440;6.914;2023-11-19T09:53:59;12.50;99.90
16198;DHT22;8206;51.440;6.914;2023-11-19T09:56:28;12.40;99.90
16198;DHT22;8206;51.440;6.914;2023-11-19T09:58:55;12.60;99.90
16198;DHT22;8206;51.440;6.914;2023-11-19T10:01:22;12.90;99.90
16198;DHT22;8206;51.440;6.914;2023-11-19T10:03:50;13.10;99.90
16198;DHT22;8206;51.440;6.914;2023-11-19T10:06:18;13.10;99.90
16198;DHT22;8206;51.440;6.914;2023-11-19T10:08:46;13.10;99.90
16198;DHT22;8206;51.440;6.914;2023-11-19T10:11:12;13.00;99.90
16198;DHT22;8206;51.440;6.914;2023-11-19T10:13:42;13.10;99.90
16198;DHT22;8206;51.440;6.914;2023-11-19T10:16:09;13.10;99.90
16198;DHT22;8206;51.440;6.914;2023-11-19T10:18:42;13.00;99.90
16198;DHT22;8206;51.440;6.914;2023-11-19T10:21:12;13.00;99.90
16198;DHT22;8206;51.440;6.914;2023-11-19T10:23:48;13.10;99.90
16198;DHT22;8206;51.440;6.914;2023-11-19T10:26:16;13.20;99.90
16198;DHT22;8206;51.440;6.914;2023-11-19T10:28:45;13.30;99.90
16198;DHT22;8206;51.440;6.914;2023-11-19T10:31:12;13.30;99.90
16198;DHT22;8206;51.440;6.914;2023-11-19T10:33:39;13.30;99.90
16198;DHT22;8206;51.440;6.914;2023-11-19T10:36:07;13.40;99.90
16198;DHT22;8206;51.440;6.914;2023-11-19T10:38:33;13.40;99.90
16198;DHT22;8206;51.440;6.914;2023-11-19T10:41:00;13.50;99.90
16198;DHT22;8206;51.440;6.914;2023-11-19T10:43:27;13.50;99.90
16198;DHT22;8206;51.440;6.914;2023-11-19T10:46:09;13.50;99.90
16198;DHT22;8206;51.440;6.914;2023-11-19T10:48:36;13.50;99.90
16198;DHT22;8206;51.440;6.914;2023-11-19T10:51:05;13.50;99.90
16198;DHT22;8206;51.440;6.914;2023-11-19T10:53:33;13.50;99.90
16198;DHT22;8206;51.440;6.914;2023-11-19T10:56:02;13.50;99.90
16198;DHT22;8206;51.440;6.914;2023-11-19T10:58:32;13.60;99.90
16198;DHT22;8206;51.440;6.914;2023-11-19T11:01:02;13.60;99.90
16198;DHT22;8206;51.440;6.914;2023-11-19T11:03:36;13.60;99.90
16198;DHT22;8206;51.440;6.914;2023-11-19T11:06:05;13.60;99.90
16198;DHT22;8206;51.440;6.914;2023-11-19T11:08:36;13.60;99.90
16198;DHT22;8206;51.440;6.914;2023-11-19T11:11:03;13.60;99.90
16198;DHT22;8206;51.440;6.914;2023-11-19T11:13:32;13.60;99.90
16198;DHT22;8206;51.440;6.914;2023-11-19T11:16:00;13.70;99.90
16198;DHT22;8206;51.440;6.914;2023-11-19T11:18:29;13.80;99.90
16198;DHT22;8206;51.440;6.914;2023-11-19T11:21:00;13.60;99.90
16198;DHT22;8206;51.440;6.914;2023-11-19T11:23:53;13.60;99.90
16198;DHT22;8206;51.440;6.914;2023-11-19T11:26:42;13.60;99.90
16198;DHT22;8206;51.440;6.914;2023-11-19T11:29:20;13.60;99.90
16198;DHT22;8206;51.440;6.914;2023-11-19T11:31:58;13.50;99.90
16198;DHT22;8206;51.440;6.914;2023-11-19T11:34:46;13.60;99.90
16198;DHT22;8206;51.440;6.914;2023-11-19T11:37:18;13.60;99.90
16198;DHT22;8206;51.440;6.914;2023-11-19T11:39:46;13.60;99.90
16198;DHT22;8206;51.440;6.914;2023-11-19T11:42:35;13.70;99.90
16198;DHT22;8206;51.440;6.914;2023-11-19T11:45:04;13.80;99.90
16198;DHT22;8206;51.440;6.914;2023-11-19T11:50:52;13.90;99.90
16198;DHT22;8206;51.440;6.914;2023-11-19T11:53:20;13.80;99.90
16198;DHT22;8206;51.440;6.914;2023-11-19T11:55:56;13.90;99.90
16198;DHT22;8206;51.440;6.914;2023-11-19T11:58:35;13.80;99.90
16198;DHT22;8206;51.440;6.914;2023-11-19T12:01:05;13.60;99.90
16198;DHT22;8206;51.440;6.914;2023-11-19T12:03:34;13.50;99.90
16198;DHT22;8206;51.440;6.914;2023-11-19T12:06:02;13.50;99.90
16198;DHT22;8206;51.440;6.914;2023-11-19T12:08:29;13.60;99.90
16198;DHT22;8206;51.440;6.914;2023-11-19T12:10:57;13.60;99.90
16198;DHT22;8206;51.440;6.914;2023-11-19T12:13:29;13.80;99.90
16198;DHT22;8206;51.440;6.914;2023-11-19T12:16:09;13.90;99.90
16198;DHT22;8206;51.440;6.914;2023-11-19T12:18:39;13.90;99.90
16198;DHT22;8206;51.440;6.914;2023-11-19T12:21:07;14.00;99.90
16198;DHT22;8206;51.440;6.914;2023-11-19T12:23:44;13.90;99.90
16198;DHT22;8206;51.440;6.914;2023-11-19T12:26:21;13.80;99.90
16198;DHT22;8206;51.440;6.914;2023-11-19T12:28:58;13.80;99.90
16198;DHT22;8206;51.440;6.914;2023-11-19T12:31:24;13.70;99.90
16198;DHT22;8206;51.440;6.914;2023-11-19T12:33:51;13.70;99.90
16198;DHT22;8206;51.440;6.914;2023-11-19T12:36:20;13.80;99.90
16198;DHT22;8206;51.440;6.914;2023-11-19T12:38:46;13.80;99.90
16198;DHT22;8206;51.440;6.914;2023-11-19T12:41:13;13.80;99.90
16198;DHT22;8206;51.440;6.914;2023-11-19T12:43:43;13.80;99.90
16198;DHT22;8206;51.440;6.914;2023-11-19T12:46:19;13.60;99.90
16198;DHT22;8206;51.440;6.914;2023-11-19T12:48:46;13.40;99.90
16198;DHT22;8206;51.440;6.914;2023-11-19T12:51:13;13.20;99.90
16198;DHT22;8206;51.440;6.914;2023-11-19T12:53:49;13.00;99.90
16198;DHT22;8206;51.440;6.914;2023-11-19T12:56:18;12.80;99.90
16198;DHT22;8206;51.440;6.914;2023-11-19T12:58:45;12.70;99.90
16198;DHT22;8206;51.440;6.914;2023-11-19T13:01:16;12.70;99.90
16198;DHT22;8206;51.440;6.914;2023-11-19T13:03:43;12.80;99.90
16198;DHT22;8206;51.440;6.914;2023-11-19T13:06:11;12.80;99.90
16198;DHT22;8206;51.440;6.914;2023-11-19T13:08:39;12.80;99.90
16198;DHT22;8206;51.440;6.914;2023-11-19T13:11:07;12.80;99.90
16198;DHT22;8206;51.440;6.914;2023-11-19T13:13:53;12.80;99.90
16198;DHT22;8206;51.440;6.914;2023-11-19T13:16:19;12.90;99.90
16198;DHT22;8206;51.440;6.914;2023-11-19T13:18:46;13.00;99.90
16198;DHT22;8206;51.440;6.914;2023-11-19T13:21:13;13.00;99.90
16198;DHT22;8206;51.440;6.914;2023-11-19T13:23:40;13.00;99.90
16198;DHT22;8206;51.440;6.914;2023-11-19T13:26:08;13.00;99.90
16198;DHT22;8206;51.440;6.914;2023-11-19T13:28:36;13.10;99.90
16198;DHT22;8206;51.440;6.914;2023-11-19T13:31:03;13.10;99.90
16198;DHT22;8206;51.440;6.914;2023-11-19T13:33:30;13.10;99.90
16198;DHT22;8206;51.440;6.914;2023-11-19T13:35:57;13.00;99.90
16198;DHT22;8206;51.440;6.914;2023-11-19T13:38:23;12.90;99.90
16198;DHT22;8206;51.440;6.914;2023-11-19T13:40:51;12.80;99.90
16198;DHT22;8206;51.440;6.914;2023-11-19T13:43:19;12.90;99.90
16198;DHT22;8206;51.440;6.914;2023-11-19T13:45:45;12.90;99.90
16198;DHT22;8206;51.440;6.914;2023-11-19T13:48:12;12.70;99.90
16198;DHT22;8206;51.440;6.914;2023-11-19T13:50:39;12.60;99.90
16198;DHT22;8206;51.440;6.914;2023-11-19T13:53:05;12.50;99.90
16198;DHT22;8206;51.440;6.914;2023-11-19T13:55:32;12.40;99.90
16198;DHT22;8206;51.440;6.914;2023-11-19T13:57:59;12.40;99.90
16198;DHT22;8206;51.440;6.914;2023-11-19T14:00:27;12.50;99.90
16198;DHT22;8206;51.440;6.914;2023-11-19T14:02:54;12.50;99.90
16198;DHT22;8206;51.440;6.914;2023-11-19T14:05:20;12.40;99.90
16198;DHT22;8206;51.440;6.914;2023-11-19T14:07:48;12.40;99.90
16198;DHT22;8206;51.440;6.914;2023-11-19T14:10:17;12.40;99.90
16198;DHT22;8206;51.440;6.914;2023-11-19T14:12:44;12.40;99.90
16198;DHT22;8206;51.440;6.914;2023-11-19T14:15:11;12.50;99.90
16198;DHT22;8206;51.440;6.914;2023-11-19T14:17:40;12.50;99.90
16198;DHT22;8206;51.440;6.914;2023-11-19T14:20:07;12.40;99.90
16198;DHT22;8206;51.440;6.914;2023-11-19T14:22:38;12.40;99.90
16198;DHT22;8206;51.440;6.914;2023-11-19T14:25:05;12.30;99.90
16198;DHT22;8206;51.440;6.914;2023-11-19T14:27:35;12.30;99.90
16198;DHT22;8206;51.440;6.914;2023-11-19T14:30:02;12.20;99.90
16198;DHT22;8206;51.440;6.914;2023-11-19T14:32:29;12.20;99.90
16198;DHT22;8206;51.440;6.914;2023-11-19T14:34:57;12.20;99.90
16198;DHT22;8206;51.440;6.914;2023-11-19T14:37:24;12.30;99.90
16198;DHT22;8206;51.440;6.914;2023-11-19T14:39:50;12.30;99.90
16198;DHT22;8206;51.440;6.914;2023-11-19T14:42:17;12.30;99.90
16198;DHT22;8206;51.440;6.914;2023-11-19T14:44:44;12.20;99.90
16198;DHT22;8206;51.440;6.914;2023-11-19T14:47:11;12.10;99.90
16198;DHT22;8206;51.440;6.914;2023-11-19T14:49:37;12.00;99.90
16198;DHT22;8206;51.440;6.914;2023-11-19T14:52:05;11.90;99.90
16198;DHT22;8206;51.440;6.914;2023-11-19T14:54:32;11.90;99.90
16198;DHT22;8206;51.440;6.914;2023-11-19T14:56:59;11.90;99.90
16198;DHT22;8206;51.440;6.914;2023-11-19T14:59:26;11.80;99.90
16198;DHT22;8206;51.440;6.914;2023-11-19T15:01:53;11.80;99.90
16198;DHT22;8206;51.440;6.914;2023-11-19T15:04:20;11.70;99.90
16198;DHT22;8206;51.440;6.914;2023-11-19T15:06:46;11.60;99.90
16198;DHT22;8206;51.440;6.914;2023-11-19T15:09:14;11.60;99.90
16198;DHT22;8206;51.440;6.914;2023-11-19T15:11:43;11.50;99.90
16198;DHT22;8206;51.440;6.914;2023-11-19T15:14:11;11.40;99.90
16198;DHT22;8206;51.440;6.914;2023-11-19T15:16:40;11.40;99.90
16198;DHT22;8206;51.440;6.914;2023-11-19T15:19:07;11.30;99.90
16198;DHT22;8206;51.440;6.914;2023-11-19T15:21:34;11.30;99.90
16198;DHT22;8206;51.440;6.914;2023-11-19T15:24:00;11.30;99.90
16198;DHT22;8206;51.440;6.914;2023-11-19T15:26:31;11.40;99.90
16198;DHT22;8206;51.440;6.914;2023-11-19T15:28:57;11.40;99.90
16198;DHT22;8206;51.440;6.914;2023-11-19T15:31:24;11.40;99.90
16198;DHT22;8206;51.440;6.914;2023-11-19T15:33:51;11.40;99.90
16198;DHT22;8206;51.440;6.914;2023-11-19T15:36:18;11.30;99.90
16198;DHT22;8206;51.440;6.914;2023-11-19T15:38:45;11.20;99.90
16198;DHT22;8206;51.440;6.914;2023-11-19T15:41:11;11.10;99.90
16198;DHT22;8206;51.440;6.914;2023-11-19T15:43:40;11.00;99.90
16198;DHT22;8206;51.440;6.914;2023-11-19T15:46:07;10.90;99.90
16198;DHT22;8206;51.440;6.914;2023-11-19T15:48:34;10.90;99.90
16198;DHT22;8206;51.440;6.914;2023-11-19T15:51:01;10.80;99.90
16198;DHT22;8206;51.440;6.914;2023-11-19T15:53:28;10.80;99.90